Time;durP1;ratioP1;P1;durP2;ratioP2;P2;SDS_P1;SDS_P2;PMS_P1;PMS_P2;Temp;Humidity;BMP_temperature;BMP_pressure;BME280_temperature;BME280_humidity;BME280_pressure;Samples;Min_cycle;Max_cycle;Signal;HPM_P1;HPM_P2
2022/09/11 00:01:15;;;;;;;8.60;7.88;;;15.90;99.90;;;;;;7336961;19;109382;-81
2022/09/11 00:03:44;;;;;;;9.02;8.20;;;15.90;99.90;;;;;;7336009;19;109241;-82
2022/09/11 00:06:14;;;;;;;11.70;7.72;;;15.80;99.90;;;;;;7336756;19;110414;-81
2022/09/11 00:08:59;;;;;;;8.50;7.70;;;15.80;99.90;;;;;;7338095;19;110594;-81
2022/09/11 00:11:33;;;;;;;8.45;7.40;;;15.80;99.90;;;;;;7336655;19;109283;-81
2022/09/11 00:14:00;;;;;;;9.68;7.78;;;15.80;99.90;;;;;;7338826;19;108887;-82
2022/09/11 00:16:34;;;;;;;14.70;9.40;;;15.90;99.90;;;;;;7337374;19;109732;-82
2022/09/11 00:19:09;;;;;;;13.65;9.50;;;15.90;99.90;;;;;;7335204;19;108343;-82
2022/09/11 00:21:36;;;;;;;13.27;10.05;;;15.90;99.90;;;;;;7342075;19;109431;-81
2022/09/11 00:24:04;;;;;;;13.25;10.27;;;15.90;99.90;;;;;;7332890;19;111282;-83
2022/09/11 00:26:31;;;;;;;13.23;9.55;;;15.90;99.90;;;;;;7329594;19;114111;-82
2022/09/11 00:28:59;;;;;;;10.48;9.07;;;15.90;99.90;;;;;;7334935;19;108795;-82
2022/09/11 00:31:28;;;;;;;15.13;10.98;;;15.80;99.90;;;;;;7334584;19;108921;-81
2022/09/11 00:33:56;;;;;;;16.30;10.93;;;15.80;99.90;;;;;;7332582;19;111152;-82
2022/09/11 00:36:26;;;;;;;12.85;10.20;;;15.80;99.90;;;;;;7333452;19;112374;-82
2022/09/11 00:38:54;;;;;;;19.10;12.00;;;15.70;99.90;;;;;;7331810;19;110985;-82
2022/09/11 00:41:29;;;;;;;10.55;8.88;;;15.60;99.90;;;;;;7336418;19;112519;-81
2022/09/11 00:44:16;;;;;;;15.77;8.27;;;15.60;99.90;;;;;;7334059;19;111499;-81
2022/09/11 00:46:52;;;;;;;10.55;7.95;;;15.50;99.90;;;;;;7334332;19;109489;-81
2022/09/11 00:49:25;;;;;;;11.10;8.05;;;15.50;99.90;;;;;;7339199;19;110272;-82
2022/09/11 00:52:15;;;;;;;34.45;10.82;;;15.50;99.90;;;;;;7336446;19;109624;-82
2022/09/11 00:54:50;;;;;;;12.85;9.27;;;15.50;99.90;;;;;;7330063;19;110841;-81
2022/09/11 00:57:22;;;;;;;12.27;9.35;;;15.50;99.90;;;;;;7332973;19;109907;-81
2022/09/11 00:59:51;;;;;;;13.70;8.48;;;15.50;99.90;;;;;;7334601;19;108791;-81
2022/09/11 01:02:21;;;;;;;12.10;8.73;;;15.60;99.90;;;;;;7332899;19;108953;-82
2022/09/11 01:04:54;;;;;;;13.23;11.02;;;15.50;99.90;;;;;;7339864;19;110348;-81
2022/09/11 01:07:23;;;;;;;14.70;12.13;;;15.50;99.90;;;;;;7330156;19;112541;-81
2022/09/11 01:09:50;;;;;;;15.00;12.85;;;15.50;99.90;;;;;;7331047;19;110275;-81
2022/09/11 01:12:41;;;;;;;14.45;11.68;;;15.50;99.90;;;;;;7328438;19;110518;-81
2022/09/11 01:15:19;;;;;;;10.98;9.82;;;15.50;99.90;;;;;;7331254;19;110784;-81
2022/09/11 01:18:09;;;;;;;11.70;10.60;;;15.40;99.90;;;;;;7331184;19;112679;-80
2022/09/11 01:20:59;;;;;;;15.32;11.13;;;15.40;99.90;;;;;;7332698;19;110358;-81
2022/09/11 01:23:41;;;;;;;14.80;10.90;;;15.40;99.90;;;;;;7329172;19;112101;-81
2022/09/11 01:26:33;;;;;;;10.95;9.95;;;15.40;99.90;;;;;;7330938;19;110929;-81
2022/09/11 01:29:30;;;;;;;12.38;9.82;;;15.40;99.90;;;;;;7340971;19;110514;-81
2022/09/11 01:32:07;;;;;;;17.98;10.52;;;15.40;99.90;;;;;;7339685;19;109911;-81
2022/09/11 01:34:59;;;;;;;15.40;10.60;;;15.40;99.90;;;;;;7336881;19;110274;-81
2022/09/11 01:37:46;;;;;;;16.15;11.02;;;15.30;99.90;;;;;;7335522;19;111509;-81
2022/09/11 01:40:23;;;;;;;16.52;10.45;;;15.30;99.90;;;;;;7335789;19;110895;-81
2022/09/11 01:42:54;;;;;;;92.93;11.70;;;15.30;99.90;;;;;;7336998;19;110417;-81
2022/09/11 01:45:24;;;;;;;38.25;11.38;;;15.20;99.90;;;;;;7335492;19;110899;-81
2022/09/11 01:47:52;;;;;;;21.33;10.82;;;15.10;99.90;;;;;;7334715;19;110384;-82
2022/09/11 01:50:23;;;;;;;12.82;11.13;;;15.10;99.90;;;;;;7337344;19;110938;-81
2022/09/11 01:52:56;;;;;;;15.18;10.48;;;15.10;99.90;;;;;;7340983;19;111860;-81
2022/09/11 01:55:38;;;;;;;12.13;10.65;;;15.10;99.90;;;;;;7332029;19;111892;-81
2022/09/11 01:58:18;;;;;;;20.52;9.77;;;15.20;99.90;;;;;;7334190;19;113054;-81
2022/09/11 02:00:49;;;;;;;250.73;12.02;;;15.10;99.90;;;;;;7339099;19;108749;-81
2022/09/11 02:03:50;;;;;;;153.73;11.60;;;15.20;99.90;;;;;;7335155;19;110954;-81
2022/09/11 02:06:23;;;;;;;203.57;12.45;;;15.10;99.90;;;;;;7334741;19;111934;-81
2022/09/11 02:08:56;;;;;;;11.48;10.15;;;15.00;99.90;;;;;;7336113;19;110280;-82
2022/09/11 02:11:23;;;;;;;11.63;10.52;;;15.00;99.90;;;;;;7335632;19;111549;-82
2022/09/11 02:14:12;;;;;;;399.30;16.52;;;15.10;99.90;;;;;;7335187;19;114419;-82
2022/09/11 02:16:55;;;;;;;299.83;16.02;;;15.10;99.90;;;;;;7339998;19;110042;-82
2022/09/11 02:19:28;;;;;;;13.65;12.20;;;15.10;99.90;;;;;;7333273;19;111438;-81
2022/09/11 02:21:58;;;;;;;12.90;11.52;;;15.10;99.90;;;;;;7334866;19;110474;-81
2022/09/11 02:24:26;;;;;;;12.95;10.27;;;15.10;99.90;;;;;;7333650;19;110559;-81
2022/09/11 02:27:03;;;;;;;12.98;10.27;;;15.10;99.90;;;;;;7335535;19;110876;-81
2022/09/11 02:29:30;;;;;;;178.30;12.68;;;15.10;99.90;;;;;;7333937;19;110336;-82
2022/09/11 02:31:59;;;;;;;498.08;17.70;;;15.10;99.90;;;;;;7335227;19;111703;-82
2022/09/11 02:34:31;;;;;;;18.25;11.40;;;15.10;99.90;;;;;;7335213;19;112080;-81
2022/09/11 02:37:02;;;;;;;15.40;9.80;;;15.10;99.90;;;;;;7336553;19;110009;-81
2022/09/11 02:40:11;;;;;;;18.02;10.73;;;15.10;99.90;;;;;;7341669;19;108781;-82
2022/09/11 02:43:05;;;;;;;26.05;10.68;;;15.20;99.90;;;;;;7333298;19;110641;-82
2022/09/11 02:45:53;;;;;;;16.88;10.98;;;15.10;99.90;;;;;;7335122;19;112393;-82
2022/09/11 02:48:42;;;;;;;15.45;12.70;;;15.10;99.90;;;;;;7333122;19;111768;-82
2022/09/11 02:51:36;;;;;;;16.85;12.43;;;15.20;99.90;;;;;;7335718;19;110376;-82
2022/09/11 02:54:31;;;;;;;20.73;13.43;;;15.20;99.90;;;;;;7335799;19;111470;-82
2022/09/11 02:57:07;;;;;;;19.85;11.60;;;15.20;99.90;;;;;;7337043;19;110958;-82
2022/09/11 02:59:54;;;;;;;13.80;12.35;;;15.20;99.90;;;;;;7331131;19;111055;-82
2022/09/11 03:02:23;;;;;;;13.43;11.57;;;15.20;99.90;;;;;;7339155;19;111160;-83
2022/09/11 03:04:50;;;;;;;42.65;11.40;;;15.20;99.90;;;;;;7335028;19;112860;-82
2022/09/11 03:07:17;;;;;;;15.07;12.15;;;15.10;99.90;;;;;;7332754;19;112003;-82
2022/09/11 03:09:44;;;;;;;15.48;12.05;;;15.10;99.90;;;;;;7333631;19;111035;-82
2022/09/11 03:12:11;;;;;;;14.55;12.30;;;15.10;99.90;;;;;;7333841;19;110395;-82
2022/09/11 03:14:38;;;;;;;13.65;11.80;;;15.20;99.90;;;;;;7334911;19;112210;-82
2022/09/11 03:17:05;;;;;;;;;;;15.20;99.90;;;;;;7335052;19;114550;-82
2022/09/11 03:19:32;;;;;;;16.77;14.35;;;15.20;99.90;;;;;;7340021;19;110042;-82
2022/09/11 03:22:00;;;;;;;18.85;14.10;;;15.20;99.90;;;;;;7334179;19;110391;-82
2022/09/11 03:24:26;;;;;;;22.33;14.82;;;15.20;99.90;;;;;;7338261;19;110795;-81
2022/09/11 03:26:54;;;;;;;18.02;13.90;;;15.20;99.90;;;;;;7333556;19;111609;-81
2022/09/11 03:29:21;;;;;;;14.85;13.00;;;15.20;99.90;;;;;;7331607;19;114197;-81
2022/09/11 03:31:47;;;;;;;;;;;15.30;99.90;;;;;;7334156;19;110224;-80
2022/09/11 03:34:16;;;;;;;14.38;12.85;;;15.20;99.90;;;;;;7340026;19;114237;-82
2022/09/11 03:36:43;;;;;;;20.92;12.57;;;15.20;99.90;;;;;;7333517;19;112367;-79
2022/09/11 03:39:10;;;;;;;16.55;12.60;;;15.20;99.90;;;;;;7332024;19;111390;-81
2022/09/11 03:41:37;;;;;;;19.80;13.00;;;15.30;99.90;;;;;;7332460;19;111505;-82
2022/09/11 03:44:04;;;;;;;;;;;15.30;99.90;;;;;;7333383;19;110861;-82
2022/09/11 03:46:31;;;;;;;13.82;12.57;;;15.20;99.90;;;;;;7344473;19;109235;-82
2022/09/11 03:48:58;;;;;;;12.88;11.75;;;15.20;99.90;;;;;;7335179;19;112610;-83
2022/09/11 03:51:25;;;;;;;13.75;12.45;;;15.20;99.90;;;;;;7330971;19;113688;-83
2022/09/11 03:53:53;;;;;;;13.32;12.23;;;15.30;99.90;;;;;;7332675;19;111573;-83
2022/09/11 03:56:20;;;;;;;14.07;12.77;;;15.20;99.90;;;;;;7331935;19;112999;-83
2022/09/11 03:58:47;;;;;;;15.13;12.52;;;15.30;99.90;;;;;;7331300;19;111386;-83
2022/09/11 04:01:17;;;;;;;15.00;13.40;;;15.30;99.90;;;;;;7333694;19;110439;-83
2022/09/11 04:03:45;;;;;;;14.50;12.27;;;15.40;99.90;;;;;;7332532;19;111181;-83
2022/09/11 04:06:12;;;;;;;17.35;13.20;;;15.40;99.90;;;;;;7333481;19;110923;-82
2022/09/11 04:08:40;;;;;;;27.27;14.85;;;15.40;99.90;;;;;;7339727;19;110593;-83
2022/09/11 04:11:10;;;;;;;21.52;14.30;;;15.40;99.90;;;;;;7332275;19;110502;-83
2022/09/11 04:13:39;;;;;;;41.72;14.75;;;15.50;99.90;;;;;;7332100;19;110766;-83
2022/09/11 04:16:11;;;;;;;26.70;14.73;;;15.50;99.90;;;;;;7332152;19;111670;-83
2022/09/11 04:18:40;;;;;;;22.75;16.05;;;15.50;99.90;;;;;;7333093;19;110430;-83
2022/09/11 04:21:10;;;;;;;32.75;15.38;;;15.50;99.90;;;;;;7334627;19;110652;-83
2022/09/11 04:23:38;;;;;;;15.45;13.77;;;15.60;99.90;;;;;;7332038;19;111732;-84
2022/09/11 04:26:17;;;;;;;15.70;14.18;;;15.50;99.90;;;;;;7330980;19;111923;-83
2022/09/11 04:28:45;;;;;;;77.90;14.73;;;15.60;99.90;;;;;;7331377;19;111033;-83
2022/09/11 04:31:14;;;;;;;89.57;15.35;;;15.60;99.90;;;;;;7335419;19;111481;-84
2022/09/11 04:33:42;;;;;;;87.65;15.45;;;15.60;99.90;;;;;;7332403;19;110612;-84
2022/09/11 04:36:12;;;;;;;17.75;14.77;;;15.50;99.90;;;;;;7332146;19;112405;-84
2022/09/11 04:38:40;;;;;;;16.52;14.85;;;15.50;99.90;;;;;;7333775;19;110537;-84
2022/09/11 04:41:07;;;;;;;17.25;15.63;;;15.50;99.90;;;;;;7331575;19;110590;-84
2022/09/11 04:43:37;;;;;;;17.00;15.40;;;15.50;99.90;;;;;;7331148;19;110963;-84
2022/09/11 04:46:08;;;;;;;33.35;15.35;;;15.60;99.90;;;;;;7333403;19;110486;-84
2022/09/11 04:48:36;;;;;;;17.00;15.20;;;15.60;99.90;;;;;;7330199;19;112672;-84
2022/09/11 04:51:06;;;;;;;79.63;15.13;;;15.60;99.90;;;;;;7336253;19;111502;-83
2022/09/11 04:53:36;;;;;;;121.43;17.70;;;15.70;99.90;;;;;;7329531;19;110946;-83
2022/09/11 04:56:06;;;;;;;332.75;19.58;;;15.60;99.90;;;;;;7330826;19;114416;-83
2022/09/11 04:58:33;;;;;;;17.92;15.80;;;15.50;99.90;;;;;;7329784;19;110751;-84
2022/09/11 05:01:04;;;;;;;17.50;15.80;;;15.50;99.90;;;;;;7330134;19;112615;-84
2022/09/11 05:03:32;;;;;;;19.42;14.25;;;15.50;99.90;;;;;;7330017;19;111100;-84
2022/09/11 05:06:04;;;;;;;76.38;16.77;;;15.60;99.90;;;;;;7339410;19;113506;-84
2022/09/11 05:08:35;;;;;;;108.38;18.70;;;15.60;99.90;;;;;;7340180;19;112010;-85
2022/09/11 05:11:06;;;;;;;29.10;17.38;;;15.50;99.90;;;;;;7338567;19;111125;-84
2022/09/11 05:13:33;;;;;;;17.13;15.35;;;15.50;99.90;;;;;;7342190;19;110303;-84
2022/09/11 05:16:04;;;;;;;16.23;14.75;;;15.50;99.90;;;;;;7337800;19;111321;-84
2022/09/11 05:18:31;;;;;;;17.48;15.77;;;15.60;99.90;;;;;;7335018;19;111263;-84
2022/09/11 05:21:03;;;;;;;18.55;16.25;;;15.70;99.90;;;;;;7340944;19;111256;-84
2022/09/11 05:23:31;;;;;;;54.33;15.82;;;15.70;99.90;;;;;;7336533;19;111153;-85
2022/09/11 05:26:00;;;;;;;16.50;15.00;;;15.70;99.90;;;;;;7337432;19;113153;-85
2022/09/11 05:28:28;;;;;;;17.33;15.65;;;15.70;99.90;;;;;;7338306;19;111292;-85
2022/09/11 05:30:56;;;;;;;16.92;15.40;;;15.70;99.90;;;;;;7337800;19;111915;-84
2022/09/11 05:33:24;;;;;;;18.95;16.55;;;15.70;99.90;;;;;;7336881;19;110277;-83
2022/09/11 05:35:52;;;;;;;33.10;16.65;;;15.80;99.90;;;;;;7342575;19;111291;-74
2022/09/11 05:38:21;;;;;;;38.13;18.60;;;15.80;99.90;;;;;;7332148;19;110745;-74
2022/09/11 05:40:50;;;;;;;19.65;16.60;;;15.90;99.90;;;;;;7333051;19;111495;-75
2022/09/11 05:43:18;;;;;;;140.40;18.83;;;15.90;99.90;;;;;;7335728;19;111908;-74
2022/09/11 05:45:57;;;;;;;55.03;18.45;;;15.90;99.90;;;;;;7338088;19;110873;-74
2022/09/11 05:48:26;;;;;;;42.67;17.77;;;15.80;99.90;;;;;;7335891;19;111419;-74
2022/09/11 05:50:58;;;;;;;23.08;16.70;;;15.90;99.90;;;;;;7338168;19;113477;-74
2022/09/11 05:53:32;;;;;;;63.42;18.20;;;15.90;99.90;;;;;;7335129;19;110425;-74
2022/09/11 05:56:14;;;;;;;30.75;17.60;;;15.90;99.90;;;;;;7337743;19;110836;-74
2022/09/11 05:58:45;;;;;;;134.10;19.15;;;15.90;99.90;;;;;;7342761;19;112291;-74
2022/09/11 06:01:15;;;;;;;76.47;18.65;;;16.00;99.90;;;;;;7335801;19;111289;-76
2022/09/11 06:03:43;;;;;;;31.73;17.42;;;16.00;99.90;;;;;;7339377;19;110990;-79
2022/09/11 06:06:11;;;;;;;75.50;17.33;;;16.00;99.90;;;;;;7338833;19;111279;-77
2022/09/11 06:08:43;;;;;;;25.52;16.10;;;16.00;99.90;;;;;;7339742;19;111972;-78
2022/09/11 06:11:13;;;;;;;22.42;16.58;;;16.10;99.90;;;;;;7334610;19;111851;-79
2022/09/11 06:13:45;;;;;;;71.40;18.98;;;16.10;99.90;;;;;;7335911;19;112878;-77
2022/09/11 06:16:17;;;;;;;204.07;20.45;;;16.10;99.90;;;;;;7334062;19;110773;-80
2022/09/11 06:18:48;;;;;;;162.98;19.60;;;16.10;99.90;;;;;;7335114;19;110748;-79
2022/09/11 06:21:23;;;;;;;178.38;19.27;;;16.20;99.90;;;;;;7340014;19;111583;-76
2022/09/11 06:23:51;;;;;;;263.63;19.27;;;16.20;99.90;;;;;;7335214;19;110860;-75
2022/09/11 06:26:22;;;;;;;79.68;17.65;;;16.20;99.90;;;;;;7333385;19;110639;-76
2022/09/11 06:28:49;;;;;;;57.00;17.33;;;16.10;99.90;;;;;;7335741;19;111577;-74
2022/09/11 06:31:19;;;;;;;35.28;17.85;;;16.10;99.90;;;;;;7331357;19;111789;-75
2022/09/11 06:33:47;;;;;;;29.52;17.95;;;16.20;99.90;;;;;;7335131;19;111019;-76
2022/09/11 06:36:19;;;;;;;149.10;18.80;;;16.20;99.90;;;;;;7333845;19;110821;-75
2022/09/11 06:38:51;;;;;;;62.67;17.10;;;16.20;99.90;;;;;;7333802;19;111716;-75
2022/09/11 06:41:19;;;;;;;146.02;19.35;;;16.20;99.90;;;;;;7336202;19;110804;-74
2022/09/11 06:43:48;;;;;;;154.18;19.33;;;16.30;99.90;;;;;;7338397;19;110834;-75
2022/09/11 06:46:20;;;;;;;74.43;19.52;;;16.30;99.90;;;;;;7334353;19;110086;-74
2022/09/11 06:48:49;;;;;;;84.72;31.15;;;16.30;99.90;;;;;;7336870;19;111876;-74
2022/09/11 06:51:19;;;;;;;35.83;22.40;;;16.30;99.90;;;;;;7332686;19;114681;-74
2022/09/11 06:53:46;;;;;;;65.18;21.40;;;16.40;99.90;;;;;;7334013;19;111265;-74
2022/09/11 06:56:16;;;;;;;603.70;38.08;;;16.40;99.90;;;;;;7335508;19;110658;-74
2022/09/11 06:58:44;;;;;;;323.10;42.85;;;16.40;99.90;;;;;;7334306;19;112045;-75
2022/09/11 07:01:14;;;;;;;174.07;50.78;;;16.40;99.90;;;;;;7334954;19;111056;-76
2022/09/11 07:03:46;;;;;;;121.18;36.22;;;16.40;99.90;;;;;;7340868;19;112811;-75
2022/09/11 07:06:15;;;;;;;317.35;36.30;;;16.50;99.90;;;;;;7333481;19;111119;-74
2022/09/11 07:08:42;;;;;;;198.35;29.50;;;16.50;99.90;;;;;;7333491;19;114982;-74
2022/09/11 07:11:11;;;;;;;104.25;36.47;;;16.60;99.90;;;;;;7335003;19;110872;-74
2022/09/11 07:13:38;;;;;;;90.88;33.42;;;16.70;99.90;;;;;;7334391;19;110740;-74
2022/09/11 07:16:08;;;;;;;59.83;27.38;;;16.70;99.90;;;;;;7335730;19;111502;-75
2022/09/11 07:18:37;;;;;;;145.35;27.63;;;16.70;99.90;;;;;;7332805;19;111734;-75
2022/09/11 07:21:12;;;;;;;58.30;29.48;;;16.80;99.90;;;;;;7333972;19;110584;-74
2022/09/11 07:23:39;;;;;;;105.10;29.20;;;16.80;99.90;;;;;;7335387;19;111730;-74
2022/09/11 07:26:10;;;;;;;89.72;29.15;;;16.80;99.90;;;;;;7337699;19;112146;-75
2022/09/11 07:28:38;;;;;;;251.52;27.00;;;16.90;99.90;;;;;;7331911;19;110819;-74
2022/09/11 07:31:19;;;;;;;54.03;26.17;;;16.90;99.90;;;;;;7331967;19;112057;-75
2022/09/11 07:33:48;;;;;;;35.63;21.73;;;17.00;99.90;;;;;;7332313;19;110248;-74
2022/09/11 07:36:20;;;;;;;216.90;20.20;;;17.00;99.90;;;;;;7332472;19;112974;-74
2022/09/11 07:38:49;;;;;;;287.75;20.35;;;17.00;99.90;;;;;;7332915;19;110863;-74
2022/09/11 07:41:20;;;;;;;73.43;19.10;;;17.00;99.90;;;;;;7333578;19;111536;-75
2022/09/11 07:43:52;;;;;;;53.10;18.02;;;17.00;99.90;;;;;;7334220;19;114043;-74
2022/09/11 07:46:20;;;;;;;265.60;20.20;;;17.10;99.90;;;;;;7334426;19;112216;-74
2022/09/11 07:48:47;;;;;;;335.80;19.48;;;17.20;99.90;;;;;;7339885;19;111523;-75
2022/09/11 07:51:16;;;;;;;199.85;18.38;;;17.20;99.90;;;;;;7334007;19;111754;-75
2022/09/11 07:53:50;;;;;;;295.48;18.50;;;17.10;99.90;;;;;;7332710;19;110934;-74
2022/09/11 07:56:20;;;;;;;72.18;16.00;;;17.00;99.90;;;;;;7332078;19;114214;-75
2022/09/11 07:58:47;;;;;;;65.07;15.57;;;17.00;99.90;;;;;;7331266;19;111390;-74
2022/09/11 08:01:17;;;;;;;303.77;17.83;;;17.00;99.90;;;;;;7332011;19;113713;-75
2022/09/11 08:03:45;;;;;;;100.07;17.05;;;17.10;99.90;;;;;;7331746;19;111450;-76
2022/09/11 08:06:17;;;;;;;103.07;17.35;;;17.10;99.90;;;;;;7334373;19;111773;-75
2022/09/11 08:09:04;;;;;;;257.08;18.05;;;17.20;99.90;;;;;;7332814;19;111949;-75
2022/09/11 08:11:37;;;;;;;84.60;17.67;;;17.30;99.90;;;;;;7337453;19;110916;-80
2022/09/11 08:14:06;;;;;;;79.45;17.88;;;17.40;99.90;;;;;;7332768;19;111370;-77
2022/09/11 08:16:35;;;;;;;38.42;17.30;;;17.50;99.90;;;;;;7330178;19;110870;-78
2022/09/11 08:19:02;;;;;;;27.48;17.58;;;17.60;99.90;;;;;;7330999;19;110731;-76
2022/09/11 08:21:30;;;;;;;22.90;17.00;;;17.60;99.90;;;;;;7332029;19;110527;-76
2022/09/11 08:23:57;;;;;;;43.70;16.88;;;17.70;99.90;;;;;;7330267;19;110581;-80
2022/09/11 08:26:27;;;;;;;92.88;18.92;;;17.90;99.90;;;;;;7331188;19;111944;-76
2022/09/11 08:28:56;;;;;;;100.85;19.70;;;18.00;99.90;;;;;;7329663;19;110441;-75
2022/09/11 08:31:25;;;;;;;31.45;18.92;;;18.00;99.90;;;;;;7332917;19;110941;-75
2022/09/11 08:33:54;;;;;;;50.28;19.90;;;18.10;99.90;;;;;;7337002;19;111747;-76
2022/09/11 08:36:21;;;;;;;51.40;20.80;;;18.20;99.90;;;;;;7333224;19;111502;-75
2022/09/11 08:38:48;;;;;;;34.53;21.55;;;18.40;99.90;;;;;;7331242;19;112482;-74
2022/09/11 08:41:39;;;;;;;54.40;23.60;;;18.50;99.90;;;;;;7332587;19;111399;-74
2022/09/11 08:44:48;;;;;;;91.85;22.85;;;18.60;99.90;;;;;;7333464;19;111457;-74
2022/09/11 08:47:19;;;;;;;36.88;23.00;;;18.60;99.90;;;;;;7329787;19;112089;-74
2022/09/11 08:49:55;;;;;;;44.22;24.42;;;18.60;99.90;;;;;;7332900;19;110850;-75
2022/09/11 08:52:22;;;;;;;80.57;22.63;;;18.80;99.90;;;;;;7330676;19;111692;-74
2022/09/11 08:54:52;;;;;;;49.47;23.85;;;18.80;99.90;;;;;;7332088;19;112338;-74
2022/09/11 08:57:33;;;;;;;52.85;23.17;;;18.90;99.90;;;;;;7336263;19;111048;-75
2022/09/11 09:00:08;;;;;;;78.40;23.95;;;18.90;99.90;;;;;;7331317;19;112022;-74
2022/09/11 09:02:55;;;;;;;39.30;23.42;;;18.90;99.90;;;;;;7334989;19;110801;-74
2022/09/11 09:05:33;;;;;;;41.13;25.52;;;18.90;99.90;;;;;;7331560;19;111968;-74
2022/09/11 09:08:13;;;;;;;93.22;26.63;;;19.10;99.90;;;;;;7331202;19;115835;-74
2022/09/11 09:11:06;;;;;;;42.78;26.80;;;19.30;99.90;;;;;;7333404;19;110021;-74
2022/09/11 09:14:17;;;;;;;45.72;27.17;;;19.30;99.90;;;;;;7330273;19;112059;-74
2022/09/11 09:17:02;;;;;;;48.08;28.45;;;19.50;99.90;;;;;;7332785;19;111910;-74
2022/09/11 09:19:56;;;;;;;56.38;32.42;;;19.60;99.90;;;;;;7337877;19;110389;-74
2022/09/11 09:22:38;;;;;;;54.20;31.92;;;19.70;99.90;;;;;;7331126;19;111790;-74
2022/09/11 09:25:11;;;;;;;58.90;31.80;;;19.80;99.90;;;;;;7331411;19;110717;-74
2022/09/11 09:27:47;;;;;;;47.67;28.75;;;19.90;99.90;;;;;;7329258;19;110618;-74
2022/09/11 09:30:18;;;;;;;51.63;31.40;;;19.90;99.90;;;;;;7330817;19;111398;-73
2022/09/11 09:32:54;;;;;;;48.75;29.13;;;20.00;99.90;;;;;;7331753;19;110888;-73
2022/09/11 09:35:41;;;;;;;45.88;28.77;;;20.10;99.90;;;;;;7330741;19;115049;-71
2022/09/11 09:38:13;;;;;;;49.45;28.33;;;20.20;99.90;;;;;;7330402;19;113190;-74
2022/09/11 09:41:02;;;;;;;47.70;27.63;;;20.30;99.90;;;;;;7329266;19;110523;-73
2022/09/11 09:43:51;;;;;;;45.38;28.00;;;20.40;99.90;;;;;;7332457;19;111518;-74
2022/09/11 09:46:41;;;;;;;43.38;27.48;;;20.50;99.90;;;;;;7326316;19;110468;-72
2022/09/11 09:49:28;;;;;;;40.72;25.35;;;20.50;99.90;;;;;;7332117;19;111477;-72
2022/09/11 09:51:57;;;;;;;48.95;27.83;;;20.60;99.90;;;;;;7336547;19;111818;-72
2022/09/11 09:54:32;;;;;;;47.50;27.67;;;20.60;99.90;;;;;;7334418;19;110686;-73
2022/09/11 09:57:03;;;;;;;42.55;25.85;;;20.70;99.90;;;;;;7334670;19;111823;-72
2022/09/11 09:59:56;;;;;;;44.20;26.92;;;20.90;99.90;;;;;;7335991;19;115238;-73
2022/09/11 10:02:56;;;;;;;42.70;25.98;;;21.00;99.90;;;;;;7334841;19;112102;-73
2022/09/11 10:05:33;;;;;;;44.08;28.38;;;21.10;99.90;;;;;;7337371;19;110496;-73
2022/09/11 10:08:05;;;;;;;43.92;28.23;;;21.10;99.90;;;;;;7343113;19;111802;-73
2022/09/11 10:10:35;;;;;;;41.17;27.13;;;21.00;99.90;;;;;;7337677;19;112395;-74
2022/09/11 10:13:17;;;;;;;45.55;28.08;;;21.00;99.90;;;;;;7336665;19;110771;-74
2022/09/11 10:15:48;;;;;;;45.35;28.00;;;21.10;99.90;;;;;;7335159;19;111165;-75
2022/09/11 10:18:32;;;;;;;59.45;33.45;;;21.30;99.90;;;;;;7335415;19;113876;-73
2022/09/11 10:21:11;;;;;;;57.63;35.95;;;21.40;99.90;;;;;;7335536;19;111780;-73
2022/09/11 10:23:49;;;;;;;55.90;35.00;;;21.40;99.90;;;;;;7336474;19;110188;-73
2022/09/11 10:26:36;;;;;;;49.42;32.60;;;21.30;99.90;;;;;;7335654;19;111587;-73
2022/09/11 10:29:20;;;;;;;52.50;32.72;;;21.50;99.90;;;;;;7336051;19;111986;-74
2022/09/11 10:31:50;;;;;;;56.08;34.40;;;21.70;99.90;;;;;;7342930;19;110491;-73
2022/09/11 10:34:21;;;;;;;58.65;35.22;;;21.90;99.90;;;;;;7335997;19;111665;-73
2022/09/11 10:36:55;;;;;;;56.85;34.92;;;22.10;99.90;;;;;;7337005;19;110591;-73
2022/09/11 10:39:25;;;;;;;67.07;35.67;;;22.40;99.90;;;;;;7334818;19;111683;-73
2022/09/11 10:41:58;;;;;;;49.85;34.42;;;22.50;99.90;;;;;;7336253;19;110939;-73
2022/09/11 10:44:27;;;;;;;57.35;35.92;;;22.60;99.90;;;;;;7334350;19;110942;-73
2022/09/11 10:47:05;;;;;;;64.28;36.40;;;22.70;99.90;;;;;;7335278;19;110961;-73
2022/09/11 10:49:33;;;;;;;55.15;35.58;;;22.80;99.90;;;;;;7337671;19;111943;-74
2022/09/11 10:52:07;;;;;;;63.55;36.13;;;22.70;99.90;;;;;;7338210;19;111928;-74
2022/09/11 10:54:53;;;;;;;61.25;38.22;;;22.60;99.90;;;;;;7338833;19;111322;-73
2022/09/11 10:57:43;;;;;;;66.40;39.72;;;22.50;99.90;;;;;;7335512;19;110832;-73
2022/09/11 11:00:30;;;;;;;65.57;39.95;;;22.50;99.90;;;;;;7334107;19;110638;-73
2022/09/11 11:03:09;;;;;;;56.75;37.38;;;22.60;99.90;;;;;;7335187;19;112175;-73
2022/09/11 11:05:48;;;;;;;51.50;36.42;;;22.80;99.90;;;;;;7336001;19;110461;-73
2022/09/11 11:08:26;;;;;;;50.42;34.72;;;23.00;99.90;;;;;;7335460;19;110816;-73
2022/09/11 11:11:04;;;;;;;48.20;35.10;;;23.20;99.90;;;;;;7335503;19;112235;-73
2022/09/11 11:13:34;;;;;;;49.35;33.72;;;23.30;99.90;;;;;;7333818;19;110410;-74
2022/09/11 11:16:17;;;;;;;47.30;33.00;;;23.30;99.90;;;;;;7335334;19;111500;-73
2022/09/11 11:18:47;;;;;;;47.00;34.33;;;23.20;99.90;;;;;;7338594;19;111692;-73
2022/09/11 11:21:34;;;;;;;43.65;31.42;;;23.20;99.90;;;;;;7333927;19;112782;-73
2022/09/11 11:24:07;;;;;;;42.90;31.17;;;23.30;99.90;;;;;;7335177;19;112703;-73
2022/09/11 11:26:53;;;;;;;37.97;29.75;;;23.30;99.90;;;;;;7335039;19;110465;-73
2022/09/11 11:29:51;;;;;;;41.90;30.85;;;23.40;99.90;;;;;;7334373;19;111603;-73
2022/09/11 11:32:37;;;;;;;;;;;23.40;99.90;;;;;;7334776;19;111405;-73
2022/09/11 11:35:28;;;;;;;38.83;27.92;;;23.40;99.90;;;;;;7339407;19;111078;-73
2022/09/11 11:38:13;;;;;;;32.25;24.77;;;23.50;99.90;;;;;;7336023;19;110162;-74
2022/09/11 11:40:55;;;;;;;32.22;25.25;;;23.70;99.90;;;;;;7339732;19;111244;-73
2022/09/11 11:43:27;;;;;;;29.00;22.45;;;23.70;99.90;;;;;;7334946;19;111973;-73
2022/09/11 11:46:09;;;;;;;25.92;20.75;;;23.80;99.90;;;;;;7333877;19;111093;-73
2022/09/11 11:48:52;;;;;;;28.25;20.40;;;24.00;99.90;;;;;;7335862;19;110465;-73
2022/09/11 11:51:27;;;;;;;25.23;18.98;;;24.10;99.90;;;;;;7334301;19;110685;-73
2022/09/11 11:54:03;;;;;;;21.05;15.43;;;24.20;99.90;;;;;;7331495;19;112019;-73
2022/09/11 11:56:46;;;;;;;19.20;16.52;;;24.30;99.90;;;;;;7333236;19;111188;-73
2022/09/11 11:59:40;;;;;;;20.27;17.80;;;24.40;99.90;;;;;;7334078;19;111429;-74
2022/09/11 12:02:07;;;;;;;17.90;15.68;;;24.40;99.90;;;;;;7332130;19;112021;-73
2022/09/11 12:05:01;;;;;;;17.40;14.23;;;24.40;99.90;;;;;;7337871;19;110320;-73
2022/09/11 12:07:32;;;;;;;13.80;12.27;;;24.50;99.90;;;;;;7333710;19;113787;-73
2022/09/11 12:10:05;;;;;;;14.93;11.30;;;24.60;99.90;;;;;;7332324;19;110300;-73
2022/09/11 12:12:35;;;;;;;13.23;11.90;;;24.60;99.90;;;;;;7331246;19;112420;-73
2022/09/11 12:15:04;;;;;;;12.93;11.23;;;24.60;99.90;;;;;;7332473;19;111844;-73
2022/09/11 12:17:34;;;;;;;18.63;13.52;;;24.80;99.90;;;;;;7333498;19;111409;-73
2022/09/11 12:20:10;;;;;;;15.63;11.68;;;24.80;99.90;;;;;;7334215;19;114723;-73
2022/09/11 12:22:48;;;;;;;12.52;11.18;;;25.00;99.90;;;;;;7334496;19;111810;-73
2022/09/11 12:25:18;;;;;;;14.25;12.05;;;25.10;99.90;;;;;;7334147;19;110887;-73
2022/09/11 12:27:45;;;;;;;14.18;10.98;;;25.20;99.90;;;;;;7338261;19;113132;-73
2022/09/11 12:30:19;;;;;;;10.57;9.18;;;25.20;99.90;;;;;;7333090;19;109893;-73
2022/09/11 12:32:46;;;;;;;15.85;11.07;;;25.40;99.90;;;;;;7335611;19;112251;-73
2022/09/11 12:35:22;;;;;;;12.57;11.10;;;25.40;99.90;;;;;;7330157;19;111994;-73
2022/09/11 12:38:36;;;;;;;13.95;11.52;;;25.60;99.90;;;;;;7329972;19;110294;-73
2022/09/11 12:41:29;;;;;;;11.65;10.35;;;25.90;99.90;;;;;;7332193;19;111042;-73
2022/09/11 12:43:56;;;;;;;12.00;9.45;;;26.10;99.90;;;;;;7332338;19;110797;-73
2022/09/11 12:46:26;;;;;;;8.50;7.53;;;26.20;99.90;;;;;;7333982;19;110055;-73
2022/09/11 12:48:55;;;;;;;8.68;7.88;;;26.10;99.90;;;;;;7334775;19;108377;-73
2022/09/11 12:51:59;;;;;;;9.63;8.52;;;25.90;99.90;;;;;;7340335;19;110995;-73
2022/09/11 12:54:32;;;;;;;8.80;8.00;;;25.90;99.90;;;;;;7332165;19;108456;-73